Portada
METAR-TAF:

METAR-TAF

Aeroports :

Brize Norton, Anglaterra

latitud: 51-45N, longitud: 001-35W, altitud: 88 m

Observació

L'informe es va fer fa 19 minuts, a les 17:50 UTC
Vent 10 kt del Est
Temperatura 23°C
Humitat 29%
Pressió 1020 hPa
Visibilitat 10 km o més
sense núvols per sota de 1500 mi sense presència de cumulonimbus.

METAR: EGVN 301750Z 09010KT CAVOK 23/04 Q1020 NOSIG RMK BLU BLU

Hora: 19:09 (18:09 UTC)

Pronòstic

L'informe es va fer fa 1 hora i 44 minuts, a les 16:25 UTC
Pronòstic vàlid del 30 a les 18 UTC al 31 a les 18 UTC
Vent 8 kt del Est/Nord-Est
Visibilitat 10 km o més
sense núvols per sota de 1500 mi sense presència de cumulonimbus.

TAF: EGVN 301625Z 3018/3118 07008KT CAVOK

Observacions i pronòstics meteorològics de més de 4000 aeroports (METAR i TAF).

Les estacions disponibles són els punts grocs i vermells al mapa.

Posi el ratolí al punt desitjat per veure el nom de l'estació.

Feu clic per veure les observacions i els pronòstics meteorològics.

Per canviar el mapa: feu clic els botons verds amb una creu de color negre per apropar; al botó verd amb un guió per allunyar la imatge; o en les fletxes verdes per a mapes adjacents.


METAR-TAF: